Portada
METAR-TAF:

METAR-TAF

Aeroports :

Pattaya-Rayong, Tailàndia

latitud: 12-38N, longitud: 101-21E, altitud: 3 m

Observació

L'informe es va fer fa 20 minuts, a les 13:00 UTC
Vent 6 kt del Sud/Sud-Oest
Temperatura 28°C
Humitat 70%
Pressió 1011 hPa
Visibilitat: 5000 m
Escasses núvols a una alçada de 2000 ft
boirina

METAR: VTBU 261300Z 21006KT 5000 BR FEW020 28/22 Q1011 NOSIG

Hora: 20:20 (13:20 UTC)

Pronòstic

L'informe es va fer fa 2 hores i 20 minuts, a les 11:00 UTC
Pronòstic vàlid del 26 a les 12 UTC al 27 a les 12 UTC
Vent 4 kt del Nord
Visibilitat: 4000 m
Escasses núvols a una alçada de 2000 ft
boirina
Evolucionant progressivament
l' 27 a les 03 UTC al 27 a les 05 UTC
Vent 10 kt del Sud
Visibilitat: 7000 m

TAF: VTBU 261100Z 2612/2712 35004KT 4000 BR FEW020 BECMG 2703/2705 19010KT 7000 NSW

Observacions i pronòstics meteorològics de més de 4000 aeroports (METAR i TAF).

Les estacions disponibles són els punts grocs i vermells al mapa.

Posi el ratolí al punt desitjat per veure el nom de l'estació.

Feu clic per veure les observacions i els pronòstics meteorològics.

Per canviar el mapa: feu clic els botons verds amb una creu de color negre per apropar; al botó verd amb un guió per allunyar la imatge; o en les fletxes verdes per a mapes adjacents.


METAR-TAF: